Bayard, NE

6:11 AM MDT on October 20, 2014 (GMT -0600)
Kimball Municipal-Arraj | Change Station
CLOSE
Current Station
Airport
Location: Kimball,
Elevation: 4925 ft
Nearby Weather Stations

Elev 4925 ft 41.19 °N, 103.68 °W | Updated 16 minutes ago

Clear
Clear
39 °F
Feels Like 34 °F
N
8
Wind Variable Wind from WSW

Today
High -- | Low -- °F
--% Chance of Precip.
Yesterday
High -- | Low -- °F
Precip. -- in
7:11 AM 6:04 PM
Waning Crescent, 11% visible
Pressure 30.12 in
Visibility 10.0 miles
Clouds Clear
Windchill 34 °F
Dew Point 35 °F
Humidity 85%
Rainfall 0.00 in
Snow Depth Not available.
UV 0 out of 12
Pollen 2.50 out of 12
Air Quality Not available.
Flu Activity Sporadic
METAR KIBM 201155Z AUTO 24007KT 10SM CLR 04/02 A3012 RMK AO2 T00400017 10082 20027

More Conditions Fewer Conditions

Pressure 30.12 in
Visibility 10.0 miles
Clouds Clear
Windchill 34 °F
Dew Point 35 °F
Humidity 85%
Rainfall 0.00 in
Snow Depth Not available.
UV 0 out of 12
Pollen 2.50 out of 12
Air Quality Not available.
Flu Activity Sporadic
METAR KIBM 201155Z AUTO 24007KT 10SM CLR 04/02 A3012 RMK AO2 T00400017 10082 20027

More Conditions Fewer Conditions

10-Day Weather Forecast

Almanac

Astronomy

Oct. 20, 2014 Rise Set
Actual Time 7:11 AM MDT 6:04 PM MDT
Civil Twilight 6:43 AM MDT 6:32 PM MDT
Nautical Twilight 6:10 AM MDT 7:04 PM MDT
Astronomical Twilight 5:38 AM MDT 7:36 PM MDT
Moon 3:59 AM MDT 4:30 PM MDT
Length of Visible Light 11h 49m
Length of Day
10h 52m
Waning Crescent, 11% of the Moon is Illuminated
Today
Waning Crescent
Oct 23
New
Oct 30
First Quarter
Nov 6
Full
Nov 14
Last Quarter

Today's Extremes

State Highs State Lows

Community

WunderPhotos

Upload Photos

1,763,349 photos uploaded!

Nearby

Snow Depth

Station Depth Elevation
No new snow has been reported.

Earthquake Activity

City Distance Mag. Time & Date
No recent earthquake activity has been reported nearby.
Minimum magnitude displayed is 2.5.

Coastal Water Temperatures

Place Temperature
No Stations Reporting

Nearby Weather Stations